Daring — NA28 — position and weather

sailwx.info

Track history (hours):
 
Tides and Currents Weather Stations Pressure Air Temp Water Temp Dewpoint Dewpoint Depression Visibility Wind Speed Wind Dir Waves Ship Positions

Daring

Last reported at 2018-Jun-21 04:29 UTC. Time now 2018-Jun-25 09:24 UTC.
Position N 39°23' W 076°06'.

Length 12 m.

Type: Sailing vessel. MMSI: 369970068.

Date/timePositionNaut miles runAvg speedWind from/ knotsBaromVisibWave heightAir tempDewpointWater temp
2018-Jun-21 04:29N 39°23' W 076°06'3 5.7
2018-Jun-21 03:58N 39°24' W 076°02'2 5.3
2018-Jun-21 03:30N 39°26' W 076°00'3 5.1
2018-Jun-21 03:00N 39°28' W 075°58'4 8.0
2018-Jun-21 02:30N 39°31' W 075°54'4 8.3
2018-Jun-21 02:00N 39°32' W 075°49'5 8.8
2018-Jun-21 01:28N 39°33' W 075°43'4 8.7
2018-Jun-21 01:00N 39°33' W 075°38'4 7.9
2018-Jun-21 00:30N 39°33' W 075°33'3 6.8
2018-Jun-21 00:00N 39°30' W 075°33'3 6.7
2018-Jun-20 23:30N 39°27' W 075°33'4 7.8
2018-Jun-20 22:57N 39°23' W 075°29'4 8.1
2018-Jun-20 22:31N 39°21' W 075°26'4 8.1
2018-Jun-20 22:01N 39°18' W 075°22'4 8.5
2018-Jun-20 21:31N 39°15' W 075°19'4 8.6
2018-Jun-20 21:01N 39°11' W 075°16'4 8.5
2018-Jun-20 20:29N 39°07' W 075°13'4 8.4
2018-Jun-20 20:00N 39°04' W 075°10'4 8.5
2018-Jun-20 19:30N 38°60' W 075°08'5 8.8
2018-Jun-20 18:57N 38°55' W 075°05'5 8.8
2018-Jun-20 18:23N 38°51' W 075°03'3 7.7
2018-Jun-20 17:58N 38°50' W 074°59'61 5.9
2018-Jun-20 07:36N 39°35' W 074°07'1 7.8
2018-Jun-20 07:27N 39°36' W 074°06'4 7.6
2018-Jun-20 06:58N 39°39' W 074°04'4 7.5
2018-Jun-20 06:30N 39°42' W 074°01'56 7.2
2018-Jun-19 22:46N 40°38' W 074°03'2 8.2
2018-Jun-19 22:29N 40°40' W 074°03'2 5.0
2018-Jun-19 21:58N 40°43' W 074°02'0 0.0
2018-Jun-19 21:28N 40°43' W 074°02'0 0.1
2018-Jun-19 21:00N 40°43' W 074°03'0 0.4
2018-Jun-19 20:30N 40°43' W 074°02'74 4.1
2018-Jun-19 02:19N 41°09' W 072°31'2 4.5
2018-Jun-19 01:56N 41°10' W 072°29'  
2018-Jun-11 16:30N 38°51' W 076°26'3 6.2
2018-Jun-11 16:00N 38°54' W 076°26'3 6.3
2018-Jun-11 15:30N 38°57' W 076°26'  
Track history (hours):
 
Tides and Currents Weather Stations Pressure Air Temp Water Temp Dewpoint Dewpoint Depression Visibility Wind Speed Wind Dir Waves Ship Positions

Daring

Last reported at 2018-Jun-21 04:29 UTC. Time now 2018-Jun-25 09:24 UTC.
Position N 39°23' W 076°06'.

Length 12 m.

Type: Sailing vessel. MMSI: 369970068.

Date/timePositionNaut miles runAvg speedWind from/ knotsBaromVisibWave heightAir tempDewpointWater temp
2018-Jun-21 04:29N 39°23' W 076°06'3 5.7
2018-Jun-21 03:58N 39°24' W 076°02'2 5.3
2018-Jun-21 03:30N 39°26' W 076°00'3 5.1
2018-Jun-21 03:00N 39°28' W 075°58'4 8.0
2018-Jun-21 02:30N 39°31' W 075°54'4 8.3
2018-Jun-21 02:00N 39°32' W 075°49'5 8.8
2018-Jun-21 01:28N 39°33' W 075°43'4 8.7
2018-Jun-21 01:00N 39°33' W 075°38'4 7.9
2018-Jun-21 00:30N 39°33' W 075°33'3 6.8
2018-Jun-21 00:00N 39°30' W 075°33'3 6.7
2018-Jun-20 23:30N 39°27' W 075°33'4 7.8
2018-Jun-20 22:57N 39°23' W 075°29'4 8.1
2018-Jun-20 22:31N 39°21' W 075°26'4 8.1
2018-Jun-20 22:01N 39°18' W 075°22'4 8.5
2018-Jun-20 21:31N 39°15' W 075°19'4 8.6
2018-Jun-20 21:01N 39°11' W 075°16'4 8.5
2018-Jun-20 20:29N 39°07' W 075°13'4 8.4
2018-Jun-20 20:00N 39°04' W 075°10'4 8.5
2018-Jun-20 19:30N 38°60' W 075°08'5 8.8
2018-Jun-20 18:57N 38°55' W 075°05'5 8.8
2018-Jun-20 18:23N 38°51' W 075°03'3 7.7
2018-Jun-20 17:58N 38°50' W 074°59'61 5.9
2018-Jun-20 07:36N 39°35' W 074°07'1 7.8
2018-Jun-20 07:27N 39°36' W 074°06'4 7.6
2018-Jun-20 06:58N 39°39' W 074°04'4 7.5
2018-Jun-20 06:30N 39°42' W 074°01'56 7.2
2018-Jun-19 22:46N 40°38' W 074°03'2 8.2
2018-Jun-19 22:29N 40°40' W 074°03'2 5.0
2018-Jun-19 21:58N 40°43' W 074°02'0 0.0
2018-Jun-19 21:28N 40°43' W 074°02'0 0.1
2018-Jun-19 21:00N 40°43' W 074°03'0 0.4
2018-Jun-19 20:30N 40°43' W 074°02'74 4.1
2018-Jun-19 02:19N 41°09' W 072°31'2 4.5
2018-Jun-19 01:56N 41°10' W 072°29'  
2018-Jun-11 16:30N 38°51' W 076°26'3 6.2
2018-Jun-11 16:00N 38°54' W 076°26'3 6.3
2018-Jun-11 15:30N 38°57' W 076°26'  

Dump ship's entire track history